KTRM/TRM METAR and TAF weather

Enter ICAO airport designator
Station Type Date Time Source
KTRM METAR 2018/12/17 02:52 UTC NOAA

KTRM 170252Z AUTO 31003KT 10SM CLR 10/02 A3011 RMK AO2 SLP196 T01000017 50007


Station Type Date Time Source
KTRM Decoded METAR 2018/12/17 02:52 UTC NOAA

Palm Springs, Jacqueline Cochran Regional Airport, CA, United States (KTRM) 33-37-36N 116-09-34W
Dec 16, 2018 - 09:52 PM EST / 2018.12.17 0252 UTC
Wind: from the NW (310 degrees) at 3 MPH (3 KT):0
Visibility: 10 mile(s):0
Sky conditions: clear
Temperature: 50.0 F (10.0 C)
Dew Point: 35.1 F (1.7 C)
Relative Humidity: 56%
Pressure (altimeter): 30.11 in. Hg (1019 hPa)
Pressure tendency: 0.02 inches (0.7 hPa) higher than three hours ago
ob: KTRM 170252Z AUTO 31003KT 10SM CLR 10/02 A3011 RMK AO2 SLP196 T01000017 50007
cycle: 3

Station Type Date Time Source
KTRM TAF 2018/12/16 18:36 UTC NOAA

TAF KTRM 161733Z 1618/1718 VRB04KT P6SM SKC


Example: see airport list